Detalii statie VESTAGRAR MARGHITA [00001D0E]

Toti senzorii

Date Temperatura solului [C]Precipitatii [mm]Voltaj baterie [mV]Leaf Wetness [Min]HC Air temperature [C]HC Relative humidity [%]Punctul de roua [C]
medieminmaxsumaultimatimpmedieminmaxmediemediemin
2019-02-21 00:00:00 0 6922 -1.09 -1.61 -0.46 0 0 0
2019-02-21 01:00:00 0 6914 -1.85 -2.69 -1.07 0 0 0
2019-02-21 02:00:00 0 6904 -1.68 -2.27 -1.03 0 0 0
2019-02-21 03:00:00 0 6894 -1.06 -1.28 -0.93 0 0 0
2019-02-21 04:00:00 0 6894 -1.72 -2.12 -1.3 0 0 0
2019-02-21 05:00:00 0 6884 -2.62 -3.69 -1.63 0 0 0
2019-02-21 06:00:00 0 6874 -3.97 -4.44 -3.23 0 0 0
2019-02-21 07:00:00 0 6884 -2.79 -3.85 -2.1 0 0 0
2019-02-21 08:00:00 0 6884 -1.79 -2.09 -1.42 0 0 0
2019-02-21 09:00:00 0 6922 -1.1 -1.7 -0.46 0 0 0
2019-02-21 10:00:00 0 7108 0.79 -0.16 1.77 0 0 0
2019-02-21 11:00:00 0 7314 3.79 2.05 5.57 0 0 0
2019-02-21 12:00:00 0 7314 6.47 5.6 7.36 83.07 3.6 2.9
2019-02-21 13:00:00 0 7324 8.33 7.27 9.55 68.07 2.6 1.9
2019-02-21 14:00:00 0 7324 10.16 9.44 10.99 58.44 2.2 1.4
2019-02-21 15:00:00 0 7314 10.77 10.48 11.15 50.56 0.7 0
2019-02-21 16:00:00 0 7304 10.56 10.19 11.06 50.15 0.4 -0.2
2019-02-21 17:00:00 0 7158 10.14 9.39 10.66 50.28 0.1 -0.2
2019-02-21 18:00:00 0 7060 8.32 6.45 9.53 56.31 0 -0.2
2019-02-21 19:00:00 0 7010 4.03 2.92 6.05 81.01 0.8 0
2019-02-21 20:00:00 0 6982 2.57 2.09 2.87 94.8 1.6 1.3
2019-02-21 21:00:00 0 6972 2.63 2.02 3.42 95.14 1.8 1.4
2019-02-21 22:00:00 0 6962 3.76 3.15 4.5 87.95 1.8 1.3
2019-02-21 23:00:00 0 6962 4.57 4.52 4.65 81.92 1.6 1.4
2019-02-22 00:00:00 0 6962 5.5 4.91 5.87 72.52 0.8 0.4
2019-02-22 01:00:00 0 6942 5.81 5.66 5.94 70.18 0.6 0.5
2019-02-22 02:00:00 0.2 6942 5.16 4.51 5.68 83.97 2.4 1
2019-02-22 03:00:00 1.8 6922 3.84 3.58 4.38 25 0
2019-02-22 04:00:00 1.4 6914 3.56 3.39 3.67 0 0 0
2019-02-22 05:00:00 0 6914 3.23 3.13 3.36 0 0 0
2019-02-22 06:00:00 0.2 6904 2.96 2.78 3.13 0 0 0
2019-02-22 07:00:00 0.2 6894 3.15 2.76 3.44 0.26 0
2019-02-22 08:00:00 0.8 6884 3.48 3.44 3.61 17.48 -20.6 -32.5
2019-02-22 09:00:00 0.6 6904 3.87 3.65 4.18 41.27 -8.3 -11.8
2019-02-22 10:00:00 0 6942 4.36 4.17 4.67 72.6 -0.2 -3.3
2019-02-22 11:00:00 0.2 7010 4.85 4.69 5.03 98.18 4.5 2.6
2019-02-22 12:00:00 0 6982 4.99 4.89 5.14 100 4.9 4.8
2019-02-22 13:00:00 1.2 6962 5.04 4.96 5.14 100 4.9 4.9
2019-02-22 14:00:00 0.2 7050 2.96 1.88 4.78 97.15 2.4 -1.6
2019-02-22 15:00:00 0 7332 2.59 1.8 3.63 21.05 -2.2 0
2019-02-22 16:00:00 0 7324 3.47 2.67 4.81 85.59 1.1 -1.5
2019-02-22 17:00:00 0 7304 1.83 0.9 3.27 69.12 -3.2 -5.3
2019-02-22 18:00:00 0 7176 0.19 -0.52 0.9 64.21 -5.7 -6.6
2019-02-22 19:00:00 0 7060 -1.2 -1.59 -0.65 64.16 -7 -7.8
2019-02-22 20:00:00 0 7000 -2.14 -2.65 -1.67 64.84 -7.8 -8.6
2019-02-22 21:00:00 0 6972 -2.93 -3.23 -2.65 64.88 -8.5 -9
2019-02-22 22:00:00 0 6952 -3.44 -3.65 -3.25 64.47 -9 -9.5
2019-02-22 23:00:00 0 6932 -3.79 -3.94 -3.59 64.67 -9.4 -9.6